createdAt,value
2023-05-20T00:01:24.660Z,95516.28
2023-05-20T00:03:56.437Z,95511.31
2023-05-20T00:06:28.039Z,95511.69
2023-05-20T00:09:00.300Z,95509.41
2023-05-20T00:11:32.027Z,95503.25
2023-05-20T00:14:03.634Z,95511.28
2023-05-20T00:16:35.204Z,95507.88
2023-05-20T00:19:07.362Z,95507.50
2023-05-20T00:21:38.764Z,95517.44
2023-05-20T00:24:10.316Z,95508.25
2023-05-20T00:26:41.828Z,95505.19
2023-05-20T00:29:13.542Z,95503.69
2023-05-20T00:31:45.087Z,95506.75
2023-05-20T00:34:16.666Z,95517.44
2023-05-20T00:36:48.248Z,95506.34
2023-05-20T00:39:19.839Z,95504.44
2023-05-20T00:41:51.375Z,95501.75
2023-05-20T00:44:24.761Z,95503.66
2023-05-20T00:46:56.585Z,95505.59
2023-05-20T00:49:28.252Z,95501.38
2023-05-20T00:52:00.192Z,95503.28
2023-05-20T00:54:32.246Z,95503.28
2023-05-20T00:57:06.474Z,95505.97
2023-05-20T00:59:39.135Z,95508.25
2023-05-20T01:02:11.052Z,95506.72
2023-05-20T01:04:47.141Z,95503.66
2023-05-20T01:07:19.625Z,95491.41
2023-05-20T01:09:52.569Z,95494.09
2023-05-20T01:12:31.001Z,95491.41
2023-05-20T01:15:07.049Z,95486.06
2023-05-20T01:17:44.976Z,95481.09
2023-05-20T01:20:18.852Z,95478.41
2023-05-20T01:22:55.214Z,95472.28
2023-05-20T01:25:27.097Z,95479.56
2023-05-20T01:27:58.685Z,95479.56
2023-05-20T01:30:35.665Z,95477.63
2023-05-20T01:33:12.305Z,95473.41
2023-05-20T01:35:44.135Z,95473.78
2023-05-20T01:38:19.277Z,95472.28
2023-05-20T01:40:51.765Z,95473.03
2023-05-20T01:43:24.482Z,95467.69
2023-05-20T01:45:56.073Z,95470.34
2023-05-20T01:48:27.646Z,95461.16
2023-05-20T01:50:59.314Z,95462.72
2023-05-20T01:53:30.901Z,95472.63
2023-05-20T01:56:02.420Z,95473.78
2023-05-20T01:58:34.015Z,95477.97
2023-05-20T02:01:05.636Z,95470.34
2023-05-20T02:03:37.143Z,95471.44
2023-05-20T02:06:08.738Z,95474.91
2023-05-20T02:08:40.504Z,95474.91
2023-05-20T02:11:12.012Z,95468.41
2023-05-20T02:13:43.543Z,95464.56
2023-05-20T02:16:15.135Z,95457.69
2023-05-20T02:18:46.750Z,95461.91
2023-05-20T02:21:18.676Z,95468.41
2023-05-20T02:23:50.560Z,95463.44
2023-05-20T02:26:22.691Z,95468.38
2023-05-20T02:28:54.307Z,95454.59
2023-05-20T02:31:26.036Z,95457.28
2023-05-20T02:33:57.967Z,95459.19
2023-05-20T02:36:29.579Z,95468.00
2023-05-20T02:39:01.239Z,95463.41
2023-05-20T02:41:32.791Z,95466.84
2023-05-20T02:44:04.467Z,95468.38
2023-05-20T02:46:36.171Z,95468.38
2023-05-20T02:49:07.883Z,95469.50
2023-05-20T02:51:40.333Z,95470.66
2023-05-20T02:54:12.095Z,95468.38
2023-05-20T02:56:43.652Z,95469.16
2023-05-20T02:59:15.542Z,95474.50
2023-05-20T03:01:47.191Z,95463.03
2023-05-20T03:04:19.256Z,95464.53
2023-05-20T03:06:52.118Z,95456.88
2023-05-20T03:09:25.144Z,95453.81
2023-05-20T03:11:56.743Z,95456.13
2023-05-20T03:14:28.254Z,95456.13
2023-05-20T03:17:00.164Z,95461.47
2023-05-20T03:19:31.865Z,95462.63
2023-05-20T03:22:03.681Z,95466.06
2023-05-20T03:24:35.676Z,95461.09
2023-05-20T03:27:07.244Z,95462.63
2023-05-20T03:29:38.851Z,95455.34
2023-05-20T03:32:11.051Z,95459.94
2023-05-20T03:34:42.500Z,95461.09
2023-05-20T03:37:14.141Z,95460.72
2023-05-20T03:39:45.701Z,95463.78
2023-05-20T03:42:17.261Z,95463.78
2023-05-20T03:44:48.819Z,95467.97
2023-05-20T03:47:20.373Z,95471.78
2023-05-20T03:49:52.202Z,95477.53
2023-05-20T03:52:23.734Z,95473.72
2023-05-20T03:54:55.336Z,95469.88
2023-05-20T03:57:26.952Z,95476.75
2023-05-20T03:59:58.644Z,95476.75
2023-05-20T04:02:30.442Z,95472.16
2023-05-20T04:05:02.346Z,95473.28
2023-05-20T04:07:33.944Z,95473.69
2023-05-20T04:10:06.181Z,95467.22
2023-05-20T04:12:38.399Z,95463.34
2023-05-20T04:15:10.621Z,95461.44
2023-05-20T04:17:42.702Z,95459.91
2023-05-20T04:20:14.509Z,95457.63
2023-05-20T04:22:46.097Z,95447.69
2023-05-20T04:25:18.006Z,95453.81
2023-05-20T04:27:50.014Z,95453.41
2023-05-20T04:30:22.056Z,95451.88
2023-05-20T04:32:54.578Z,95452.28
2023-05-20T04:35:26.338Z,95444.63
2023-05-20T04:37:57.975Z,95446.19
2023-05-20T04:40:29.602Z,95454.59
2023-05-20T04:43:01.275Z,95448.09
2023-05-20T04:45:34.109Z,95454.59
2023-05-20T04:48:06.079Z,95451.16
2023-05-20T04:50:37.875Z,95453.47
2023-05-20T04:53:09.737Z,95456.53
2023-05-20T04:55:41.471Z,95450.03
2023-05-20T04:58:15.624Z,95456.50
2023-05-20T05:00:47.160Z,95457.28
2023-05-20T05:03:19.022Z,95449.63
2023-05-20T05:05:50.628Z,95458.44
2023-05-20T05:08:22.164Z,95456.53
2023-05-20T05:10:53.665Z,95456.13
2023-05-20T05:13:25.258Z,95453.88
2023-05-20T05:16:03.452Z,95447.38
2023-05-20T05:18:35.113Z,95444.31
2023-05-20T05:21:06.862Z,95442.38
2023-05-20T05:23:38.461Z,95439.72
2023-05-20T05:26:09.964Z,95441.66
2023-05-20T05:28:43.363Z,95443.19
2023-05-20T05:31:14.909Z,95450.84
2023-05-20T05:33:46.481Z,95447.78
2023-05-20T05:36:18.050Z,95440.88
2023-05-20T05:38:49.565Z,95440.50
2023-05-20T05:41:21.631Z,95438.22
2023-05-20T05:43:54.025Z,95444.34
2023-05-20T05:46:25.785Z,95454.28
2023-05-20T05:48:58.913Z,95457.72
2023-05-20T05:51:31.068Z,95455.06
2023-05-20T05:54:02.636Z,95461.56
2023-05-20T05:56:34.164Z,95454.69
2023-05-20T05:59:05.962Z,95450.47
2023-05-20T06:01:37.711Z,95450.09
2023-05-20T06:04:09.394Z,95466.97
2023-05-20T06:06:41.784Z,95461.59
2023-05-20T06:09:13.319Z,95458.16
2023-05-20T06:11:44.807Z,95459.28
2023-05-20T06:14:16.344Z,95456.59
2023-05-20T06:16:47.912Z,95452.41
2023-05-20T06:19:19.500Z,95439.34
2023-05-20T06:21:51.040Z,95446.25
2023-05-20T06:24:24.365Z,95447.34
2023-05-20T06:26:56.498Z,95447.34
2023-05-20T06:29:29.251Z,95446.19
2023-05-20T06:32:01.431Z,95446.16
2023-05-20T06:34:32.792Z,95445.00
2023-05-20T06:37:04.455Z,95435.41
2023-05-20T06:39:36.232Z,95439.25
2023-05-20T06:42:08.157Z,95440.38
2023-05-20T06:44:39.705Z,95438.41
2023-05-20T06:47:11.692Z,95443.75
2023-05-20T06:49:47.157Z,95442.97
2023-05-20T06:52:19.219Z,95439.22
2023-05-20T06:54:50.752Z,95438.09
2023-05-20T06:57:22.501Z,95433.47
2023-05-20T06:59:54.037Z,95431.50
2023-05-20T07:02:25.781Z,95426.44
2023-05-20T07:04:57.321Z,95426.38
2023-05-20T07:07:28.890Z,95433.66
2023-05-20T07:10:00.525Z,95427.16
2023-05-20T07:12:33.893Z,95436.53
2023-05-20T07:15:07.884Z,95429.56
2023-05-20T07:17:39.472Z,95421.41
2023-05-20T07:20:11.147Z,95426.72
2023-05-20T07:22:44.057Z,95423.28
2023-05-20T07:25:15.602Z,95417.47
2023-05-20T07:27:47.143Z,95413.97
2023-05-20T07:30:18.750Z,95422.75
2023-05-20T07:32:50.424Z,95421.59
2023-05-20T07:35:22.143Z,95421.63
2023-05-20T07:37:53.689Z,95404.31
2023-05-20T07:40:25.273Z,95414.25
2023-05-20T07:42:56.855Z,95414.22
2023-05-20T07:45:28.442Z,95412.72
2023-05-20T07:48:00.019Z,95412.00
2023-05-20T07:50:31.626Z,95415.47
2023-05-20T07:53:03.188Z,95418.09
2023-05-20T07:55:39.265Z,95418.06
2023-05-20T07:58:11.100Z,95418.41
2023-05-20T08:00:44.582Z,95421.09
2023-05-20T08:03:16.261Z,95411.53
2023-05-20T08:05:47.970Z,95418.38
2023-05-20T08:08:19.517Z,95418.25
2023-05-20T08:10:51.823Z,95418.16
2023-05-20T08:13:24.332Z,95412.72
2023-05-20T08:15:56.195Z,95409.34
2023-05-20T08:18:27.973Z,95402.63
2023-05-20T08:20:59.797Z,95404.84
2023-05-20T08:23:34.088Z,95405.94
2023-05-20T08:26:07.711Z,95406.66
2023-05-20T08:28:39.568Z,95404.59
2023-05-20T08:31:11.343Z,95398.72
2023-05-20T08:33:43.154Z,95407.81
2023-05-20T08:36:14.695Z,95400.25
2023-05-20T08:38:46.528Z,95394.44
2023-05-20T08:41:18.462Z,95399.56
2023-05-20T08:43:50.949Z,95386.06
2023-05-20T08:46:23.241Z,95388.78
2023-05-20T08:48:54.983Z,95381.59
2023-05-20T08:51:27.780Z,95388.59
2023-05-20T08:53:59.974Z,95383.94
2023-05-20T08:56:32.793Z,95381.16
2023-05-20T08:59:04.357Z,95382.91
2023-05-20T09:01:43.225Z,95379.97
2023-05-20T09:04:14.823Z,95390.00
2023-05-20T09:06:49.666Z,95384.88
2023-05-20T09:09:21.197Z,95384.25
2023-05-20T09:11:52.732Z,95385.63
2023-05-20T09:14:27.104Z,95396.22
2023-05-20T09:16:59.455Z,95394.53
2023-05-20T09:19:33.567Z,95394.25
2023-05-20T09:22:06.022Z,95390.59
2023-05-20T09:24:37.545Z,95396.66
2023-05-20T09:27:10.355Z,95385.19
2023-05-20T09:29:43.619Z,95381.94
2023-05-20T09:32:16.354Z,95382.03
2023-05-20T09:34:48.055Z,95381.13
2023-05-20T09:37:21.677Z,95381.03
2023-05-20T09:40:00.716Z,95385.84
2023-05-20T09:42:41.653Z,95381.66
2023-05-20T09:45:13.358Z,95374.84
2023-05-20T09:47:46.140Z,95378.75
2023-05-20T09:50:21.160Z,95360.41
2023-05-20T09:52:53.954Z,95366.75
2023-05-20T09:55:25.496Z,95355.13
2023-05-20T09:58:01.859Z,95361.38
2023-05-20T10:00:34.560Z,95361.69
2023-05-20T10:03:06.698Z,95356.91
2023-05-20T10:05:47.438Z,95352.44
2023-05-20T10:08:46.524Z,95343.78
2023-05-20T10:11:42.234Z,95338.41
2023-05-20T10:14:28.756Z,95340.66
2023-05-20T10:17:18.592Z,95347.63
2023-05-20T10:19:51.116Z,95348.56
2023-05-20T10:22:29.798Z,95340.56
2023-05-20T10:25:08.437Z,95332.41
2023-05-20T10:27:47.837Z,95343.25
2023-05-20T10:30:21.319Z,95342.06
2023-05-20T10:32:57.039Z,95327.44
2023-05-20T10:35:29.368Z,95328.63
2023-05-20T10:38:11.236Z,95329.47
2023-05-20T10:40:42.908Z,95326.78
2023-05-20T10:43:29.396Z,95315.59
2023-05-20T10:46:03.198Z,95313.88
2023-05-20T10:48:42.397Z,95313.50
2023-05-20T10:51:14.855Z,95306.94
2023-05-20T10:53:46.829Z,95303.03
2023-05-20T10:56:19.427Z,95305.38
2023-05-20T10:58:52.806Z,95295.88
2023-05-20T11:01:26.807Z,95293.97
2023-05-20T11:04:00.651Z,95290.88
2023-05-20T11:06:33.784Z,95293.84
2023-05-20T11:09:07.457Z,95286.09
2023-05-20T11:11:39.035Z,95281.41
2023-05-20T11:14:14.753Z,95277.09
2023-05-20T11:16:46.981Z,95282.31
2023-05-20T11:19:21.638Z,95271.16
2023-05-20T11:21:53.679Z,95268.00
2023-05-20T11:24:29.217Z,95272.69
2023-05-20T11:27:02.210Z,95267.69
2023-05-20T11:29:33.903Z,95258.44
2023-05-20T11:32:06.147Z,95258.28
2023-05-20T11:34:39.408Z,95259.94
2023-05-20T11:37:11.727Z,95266.13
2023-05-20T11:39:43.303Z,95265.22
2023-05-20T11:42:16.308Z,95247.00
2023-05-20T11:44:48.802Z,95247.97
2023-05-20T11:49:59.939Z,95252.53
2023-05-20T11:52:33.882Z,95252.44
2023-05-20T11:55:11.097Z,95245.50
2023-05-20T11:57:42.649Z,95247.13
2023-05-20T12:00:14.228Z,95238.13
2023-05-20T12:02:46.015Z,95238.69
2023-05-20T12:05:17.923Z,95245.59
2023-05-20T12:07:49.548Z,95243.94
2023-05-20T12:10:21.049Z,95237.53
2023-05-20T12:12:52.581Z,95235.28
2023-05-20T12:15:24.853Z,95230.16
2023-05-20T12:17:56.489Z,95224.25
2023-05-20T12:20:28.992Z,95231.78
2023-05-20T12:23:01.214Z,95222.06
2023-05-20T12:25:32.862Z,95224.22
2023-05-20T12:28:04.550Z,95220.69
2023-05-20T12:30:36.325Z,95220.56
2023-05-20T12:33:09.063Z,95223.84
2023-05-20T12:35:42.377Z,95228.94
2023-05-20T12:38:13.929Z,95219.53
2023-05-20T12:40:45.475Z,95234.59
2023-05-20T12:43:16.984Z,95213.28
2023-05-20T12:45:48.730Z,95222.28
2023-05-20T12:48:20.255Z,95215.59
2023-05-20T12:50:51.802Z,95214.09
2023-05-20T12:53:23.314Z,95216.31
2023-05-20T12:55:55.030Z,95209.88
2023-05-20T12:58:26.540Z,95211.91
2023-05-20T13:00:58.106Z,95208.41
2023-05-20T13:03:29.763Z,95207.19
2023-05-20T13:06:01.388Z,95214.69
2023-05-20T13:08:33.006Z,95203.09
2023-05-20T13:11:04.590Z,95211.28
2023-05-20T13:13:36.528Z,95199.59
2023-05-20T13:16:08.220Z,95197.16
2023-05-20T13:18:39.821Z,95202.75
2023-05-20T13:21:11.372Z,95200.22
2023-05-20T13:23:43.336Z,95198.28
2023-05-20T13:26:15.471Z,95193.28
2023-05-20T13:28:47.994Z,95183.47
2023-05-20T13:31:19.715Z,95183.50
2023-05-20T13:33:53.228Z,95175.03
2023-05-20T13:36:24.983Z,95175.38
2023-05-20T13:38:56.746Z,95174.56
2023-05-20T13:41:28.364Z,95172.47
2023-05-20T13:43:59.881Z,95174.50
2023-05-20T13:46:31.527Z,95174.00
2023-05-20T13:49:03.181Z,95182.25
2023-05-20T13:51:34.826Z,95177.09
2023-05-20T13:54:06.757Z,95177.19
2023-05-20T13:56:38.811Z,95181.75
2023-05-20T13:59:10.529Z,95170.03
2023-05-20T14:01:45.691Z,95162.88
2023-05-20T14:04:17.335Z,95152.72
2023-05-20T14:06:48.968Z,95165.38
2023-05-20T14:09:20.785Z,95165.19
2023-05-20T14:11:52.250Z,95159.41
2023-05-20T14:14:23.783Z,95167.38
2023-05-20T14:16:55.509Z,95168.16
2023-05-20T14:19:27.190Z,95156.53
2023-05-20T14:22:01.712Z,95150.91
2023-05-20T14:24:33.515Z,95153.22
2023-05-20T14:27:05.081Z,95146.16
2023-05-20T14:29:36.677Z,95147.56
2023-05-20T14:32:09.669Z,95143.50
2023-05-20T14:34:41.426Z,95145.00
2023-05-20T14:37:13.104Z,95152.59
2023-05-20T14:39:44.680Z,95148.22
2023-05-20T14:42:16.817Z,95148.50
2023-05-20T14:44:49.825Z,95149.25
2023-05-20T14:47:22.361Z,95149.13
2023-05-20T14:49:54.129Z,95142.31
2023-05-20T14:52:25.760Z,95141.84
2023-05-20T14:54:57.307Z,95141.25
2023-05-20T14:57:28.929Z,95140.50
2023-05-20T15:00:00.645Z,95138.25
2023-05-20T15:02:32.280Z,95142.91
2023-05-20T15:05:04.094Z,95131.28
2023-05-20T15:07:35.634Z,95140.03
2023-05-20T15:10:07.997Z,95136.53
2023-05-20T15:12:39.915Z,95145.31
2023-05-20T15:15:11.535Z,95143.91
2023-05-20T15:17:43.190Z,95145.09
2023-05-20T15:20:14.916Z,95145.69
2023-05-20T15:22:48.123Z,95141.38
2023-05-20T15:25:20.827Z,95146.81
2023-05-20T15:27:52.468Z,95148.94
2023-05-20T15:30:24.283Z,95143.28
2023-05-20T15:32:56.120Z,95144.06
2023-05-20T15:35:27.821Z,95150.75
2023-05-20T15:37:59.557Z,95147.16
2023-05-20T15:40:32.016Z,95143.56
2023-05-20T15:43:04.344Z,95149.03
2023-05-20T15:45:35.995Z,95147.56
2023-05-20T15:48:08.370Z,95155.88
2023-05-20T15:50:40.323Z,95151.16
2023-05-20T15:53:11.744Z,95149.97
2023-05-20T15:55:44.889Z,95136.91
2023-05-20T15:58:16.696Z,95146.75
2023-05-20T16:00:49.709Z,95142.34
2023-05-20T16:03:21.683Z,95144.97
2023-05-20T16:05:53.317Z,95128.97
2023-05-20T16:08:24.934Z,95131.38
2023-05-20T16:10:56.885Z,95131.50
2023-05-20T16:13:28.420Z,95132.06
2023-05-20T16:16:00.376Z,95128.31
2023-05-20T16:18:32.175Z,95122.25
2023-05-20T16:21:07.263Z,95127.09
2023-05-20T16:23:38.877Z,95124.84
2023-05-20T16:26:10.577Z,95122.56
2023-05-20T16:28:42.113Z,95128.81
2023-05-20T16:31:13.833Z,95117.94
2023-05-20T16:33:45.620Z,95119.63
2023-05-20T16:36:19.204Z,95122.97
2023-05-20T16:38:51.030Z,95126.47
2023-05-20T16:41:22.869Z,95134.16
2023-05-20T16:43:54.415Z,95125.69
2023-05-20T16:46:25.994Z,95135.91
2023-05-20T16:48:57.674Z,95140.38
2023-05-20T16:51:29.225Z,95145.03
2023-05-20T16:54:00.947Z,95146.38
2023-05-20T16:56:33.430Z,95135.19
2023-05-20T16:59:05.025Z,95142.38
2023-05-20T17:01:36.928Z,95138.09
2023-05-20T17:04:08.953Z,95139.25
2023-05-20T17:06:40.458Z,95146.31
2023-05-20T17:09:12.180Z,95137.81
2023-05-20T17:11:44.072Z,95143.50
2023-05-20T17:14:15.514Z,95145.31
2023-05-20T17:16:47.311Z,95145.41
2023-05-20T17:19:18.841Z,95144.09
2023-05-20T17:21:50.574Z,95144.09
2023-05-20T17:24:22.099Z,95146.81
2023-05-20T17:26:53.664Z,95154.13
2023-05-20T17:29:25.333Z,95152.63
2023-05-20T17:31:56.964Z,95153.72
2023-05-20T17:34:28.540Z,95157.28
2023-05-20T17:37:00.127Z,95156.38
2023-05-20T17:39:31.657Z,95165.81
2023-05-20T17:42:03.264Z,95164.53
2023-05-20T17:44:34.862Z,95156.97
2023-05-20T17:47:06.749Z,95157.66
2023-05-20T17:49:38.208Z,95161.47
2023-05-20T17:52:09.827Z,95159.53
2023-05-20T17:54:41.600Z,95153.91
2023-05-20T17:57:13.139Z,95153.06
2023-05-20T17:59:45.523Z,95158.66
2023-05-20T18:02:17.201Z,95166.03
2023-05-20T18:04:48.822Z,95164.72
2023-05-20T18:07:20.484Z,95157.59
2023-05-20T18:09:52.107Z,95165.81
2023-05-20T18:12:23.681Z,95163.44
2023-05-20T18:14:55.420Z,95158.47
2023-05-20T18:17:28.160Z,95159.09
2023-05-20T18:19:59.794Z,95164.72
2023-05-20T18:22:31.355Z,95168.69
2023-05-20T18:25:03.141Z,95168.16
2023-05-20T18:27:34.676Z,95167.94
2023-05-20T18:30:07.232Z,95166.59
2023-05-20T18:32:39.099Z,95164.00
2023-05-20T18:35:11.197Z,95163.75
2023-05-20T18:37:42.762Z,95162.84
2023-05-20T18:40:14.359Z,95164.13
2023-05-20T18:42:46.146Z,95160.00
2023-05-20T18:45:17.724Z,95159.75
2023-05-20T18:47:50.084Z,95165.72
2023-05-20T18:50:21.727Z,95156.91
2023-05-20T18:52:53.444Z,95153.25
2023-05-20T18:55:25.077Z,95162.63
2023-05-20T18:57:56.668Z,95165.06
2023-05-20T19:00:28.275Z,95157.50
2023-05-20T19:03:00.111Z,95168.03
2023-05-20T19:05:31.710Z,95170.84
2023-05-20T19:08:05.809Z,95164.09
2023-05-20T19:10:37.520Z,95162.56
2023-05-20T19:13:09.111Z,95166.97
2023-05-20T19:15:40.781Z,95166.28
2023-05-20T19:18:13.518Z,95171.75
2023-05-20T19:20:45.102Z,95176.50
2023-05-20T19:23:16.698Z,95176.13
2023-05-20T19:25:48.236Z,95180.88
2023-05-20T19:28:19.828Z,95191.00
2023-05-20T19:30:51.407Z,95186.09
2023-05-20T19:33:23.046Z,95187.63
2023-05-20T19:35:54.621Z,95188.47
2023-05-20T19:38:26.346Z,95190.81
2023-05-20T19:40:57.984Z,95196.72
2023-05-20T19:43:30.488Z,95194.50
2023-05-20T19:46:02.235Z,95190.72
2023-05-20T19:48:34.015Z,95208.19
2023-05-20T19:51:05.722Z,95213.97
2023-05-20T19:53:38.164Z,95204.88
2023-05-20T19:56:09.781Z,95211.50
2023-05-20T19:58:41.353Z,95208.16
2023-05-20T20:01:13.128Z,95210.41
2023-05-20T20:03:46.016Z,95207.78
2023-05-20T20:06:17.626Z,95206.25
2023-05-20T20:08:49.293Z,95212.09
2023-05-20T20:11:21.404Z,95212.59
2023-05-20T20:13:52.806Z,95212.66
2023-05-20T20:16:24.522Z,95215.34
2023-05-20T20:18:56.152Z,95208.09
2023-05-20T20:21:27.895Z,95209.69
2023-05-20T20:24:00.013Z,95218.59
2023-05-20T20:26:31.461Z,95219.09
2023-05-20T20:29:03.080Z,95211.06
2023-05-20T20:31:34.698Z,95220.75
2023-05-20T20:34:06.530Z,95220.81
2023-05-20T20:36:39.609Z,95217.81
2023-05-20T20:39:19.026Z,95224.06
2023-05-20T20:41:50.823Z,95216.03
2023-05-20T20:44:22.653Z,95223.78
2023-05-20T20:46:55.044Z,95219.22
2023-05-20T20:49:28.391Z,95224.66
2023-05-20T20:52:00.280Z,95224.31
2023-05-20T20:54:32.908Z,95222.03
2023-05-20T20:57:04.533Z,95221.75
2023-05-20T20:59:36.573Z,95219.13
2023-05-20T21:02:08.186Z,95223.81
2023-05-20T21:04:41.327Z,95218.50
2023-05-20T21:07:18.229Z,95215.84
2023-05-20T21:09:54.853Z,95223.25
2023-05-20T21:12:26.541Z,95219.88
2023-05-20T21:14:58.091Z,95224.53
2023-05-20T21:17:29.722Z,95218.41
2023-05-20T21:20:01.303Z,95220.00
2023-05-20T21:22:32.879Z,95217.00
2023-05-20T21:25:04.960Z,95211.69
2023-05-20T21:27:36.558Z,95216.41
2023-05-20T21:30:09.813Z,95217.59
2023-05-20T21:32:41.434Z,95218.41
2023-05-20T21:35:13.387Z,95210.81
2023-05-20T21:37:44.934Z,95211.97
2023-05-20T21:40:16.517Z,95218.91
2023-05-20T21:42:50.896Z,95214.03
2023-05-20T21:45:22.525Z,95212.50
2023-05-20T21:47:54.202Z,95213.41
2023-05-20T21:50:25.805Z,95209.66
2023-05-20T21:52:57.417Z,95207.81
2023-05-20T21:55:29.044Z,95216.72
2023-05-20T21:58:00.496Z,95208.69
2023-05-20T22:00:32.074Z,95203.34
2023-05-20T22:03:03.661Z,95211.84
2023-05-20T22:05:35.299Z,95212.69
2023-05-20T22:08:07.573Z,95211.63
2023-05-20T22:10:39.207Z,95199.34
2023-05-20T22:13:11.011Z,95205.13
2023-05-20T22:15:43.030Z,95201.34
2023-05-20T22:18:14.879Z,95195.59
2023-05-20T22:20:47.653Z,95202.94
2023-05-20T22:23:19.050Z,95203.41
2023-05-20T22:25:50.660Z,95194.97
2023-05-20T22:28:23.493Z,95193.91
2023-05-20T22:30:55.664Z,95190.47
2023-05-20T22:33:27.056Z,95188.63
2023-05-20T22:35:59.530Z,95188.63
2023-05-20T22:38:31.081Z,95192.88
2023-05-20T22:41:02.675Z,95187.50
2023-05-20T22:43:34.304Z,95184.81
2023-05-20T22:46:07.098Z,95186.38
2023-05-20T22:48:38.725Z,95183.69
2023-05-20T22:51:10.956Z,95177.63
2023-05-20T22:53:42.480Z,95177.66
2023-05-20T22:56:15.146Z,95173.44
2023-05-20T22:58:46.801Z,95173.09
2023-05-20T23:01:18.892Z,95172.69
2023-05-20T23:03:52.549Z,95172.72
2023-05-20T23:06:24.264Z,95169.28
2023-05-20T23:08:55.807Z,95171.59
2023-05-20T23:11:27.567Z,95169.72
2023-05-20T23:13:59.138Z,95163.59
2023-05-20T23:16:31.738Z,95159.72
2023-05-20T23:19:03.429Z,95160.13
2023-05-20T23:21:35.129Z,95159.38
2023-05-20T23:24:06.716Z,95162.91
2023-05-20T23:26:38.311Z,95155.59
2023-05-20T23:29:10.445Z,95159.38
2023-05-20T23:31:42.052Z,95150.56
2023-05-20T23:34:13.797Z,95159.38
2023-05-20T23:36:45.775Z,95149.78
2023-05-20T23:39:18.421Z,95160.19
2023-05-20T23:41:50.547Z,95151.00
2023-05-20T23:44:22.153Z,95151.78
2023-05-20T23:46:53.744Z,95146.78
2023-05-20T23:49:27.164Z,95147.94
2023-05-20T23:51:58.845Z,95149.09
2023-05-20T23:54:34.221Z,95136.91
2023-05-20T23:57:10.207Z,95149.59
2023-05-20T23:59:43.005Z,95137.72
